Time;durP1;ratioP1;P1;durP2;ratioP2;P2;SDS_P1;SDS_P2;PMS_P1;PMS_P2;Temp;Humidity;BMP_temperature;BMP_pressure;BME280_temperature;BME280_humidity;BME280_pressure;Samples;Min_cycle;Max_cycle;Signal;HPM_P1;HPM_P2
2023/12/04 00:01:52;;;;;;;5.10;4.55;;;16.20;54.70;;;;;;5054666;28;20179;-61
2023/12/04 00:04:18;;;;;;;5.25;3.90;;;16.10;54.50;;;;;;5054811;28;20214;-61
2023/12/04 00:06:43;;;;;;;4.85;4.35;;;16.10;55.00;;;;;;5054410;28;20179;-61
2023/12/04 00:09:09;;;;;;;5.07;4.45;;;16.10;54.30;;;;;;5054699;28;20540;-62
2023/12/04 00:11:34;;;;;;;4.65;4.25;;;16.00;54.30;;;;;;5055160;28;20634;-62
2023/12/04 00:14:00;;;;;;;4.30;3.63;;;16.00;54.30;;;;;;5055403;28;20544;-63
2023/12/04 00:16:26;;;;;;;6.80;4.78;;;16.00;54.20;;;;;;5054175;28;20213;-62
2023/12/04 00:18:51;;;;;;;5.68;4.40;;;15.90;54.10;;;;;;5055263;28;20183;-61
2023/12/04 00:21:17;;;;;;;5.90;5.32;;;15.90;54.10;;;;;;5054015;28;20266;-62
2023/12/04 00:23:42;;;;;;;10.35;5.25;;;15.90;54.10;;;;;;5055288;28;20210;-62
2023/12/04 00:26:08;;;;;;;5.93;5.32;;;15.80;54.00;;;;;;5055218;28;20173;-62
2023/12/04 00:28:36;;;;;;;5.90;5.30;;;15.80;53.90;;;;;;5054131;28;20183;-61
2023/12/04 00:31:01;;;;;;;5.60;4.68;;;15.80;53.80;;;;;;5055073;28;20167;-61
2023/12/04 00:33:27;;;;;;;5.28;4.78;;;15.80;53.90;;;;;;5054672;28;20205;-61
2023/12/04 00:35:52;;;;;;;6.03;5.40;;;15.70;53.80;;;;;;5054112;28;20163;-61
2023/12/04 00:38:18;;;;;;;10.93;5.90;;;15.70;53.90;;;;;;5054568;28;20179;-62
2023/12/04 00:40:44;;;;;;;6.10;5.18;;;15.70;53.80;;;;;;5054681;28;20631;-62
2023/12/04 00:43:09;;;;;;;6.15;5.00;;;15.60;53.80;;;;;;5054014;28;20236;-62
2023/12/04 00:45:35;;;;;;;5.80;5.20;;;15.60;53.80;;;;;;5054408;28;20273;-62
2023/12/04 00:48:00;;;;;;;6.95;6.28;;;15.60;53.80;;;;;;5054556;28;20950;-62
2023/12/04 00:50:26;;;;;;;5.60;5.00;;;15.60;53.80;;;;;;5052300;28;20183;-62
2023/12/04 00:52:51;;;;;;;6.95;5.60;;;15.50;54.40;;;;;;5054363;28;20225;-62
2023/12/04 00:55:17;;;;;;;5.82;5.07;;;15.50;53.80;;;;;;5054420;28;20178;-61
2023/12/04 00:57:42;;;;;;;6.70;5.55;;;15.50;53.70;;;;;;5053713;28;20186;-61
2023/12/04 01:00:08;;;;;;;6.53;5.55;;;15.50;53.80;;;;;;5054377;28;20175;-61
2023/12/04 01:02:34;;;;;;;6.13;5.53;;;15.50;53.70;;;;;;5053761;28;20214;-61
2023/12/04 01:04:59;;;;;;;6.57;5.40;;;15.40;53.70;;;;;;5053243;28;20179;-61
2023/12/04 01:07:25;;;;;;;6.85;6.15;;;15.40;53.70;;;;;;5054159;28;20182;-61
2023/12/04 01:09:50;;;;;;;5.55;5.05;;;15.40;53.70;;;;;;5054414;28;20186;-62
2023/12/04 01:12:16;;;;;;;6.13;5.53;;;15.40;53.60;;;;;;5053208;28;20535;-62
2023/12/04 01:14:42;;;;;;;6.25;5.65;;;15.40;53.60;;;;;;5054215;28;20650;-61
2023/12/04 01:17:07;;;;;;;6.20;5.60;;;15.40;53.60;;;;;;5054148;28;20206;-61
2023/12/04 01:19:33;;;;;;;6.47;5.80;;;15.40;53.50;;;;;;5053011;28;20175;-61
2023/12/04 01:21:58;;;;;;;6.93;6.22;;;15.30;53.60;;;;;;5054260;28;20179;-62
2023/12/04 01:24:24;;;;;;;6.75;6.07;;;15.30;53.50;;;;;;5053237;28;20585;-61
2023/12/04 01:26:49;;;;;;;6.63;5.95;;;15.30;53.50;;;;;;5053538;28;20171;-61
2023/12/04 01:29:15;;;;;;;5.93;5.32;;;15.30;53.60;;;;;;5053573;28;20179;-61
2023/12/04 01:31:40;;;;;;;6.30;5.55;;;15.30;53.50;;;;;;5052928;28;20653;-61
2023/12/04 01:34:06;;;;;;;6.65;6.00;;;15.30;53.50;;;;;;5053749;28;20187;-62
2023/12/04 01:36:31;;;;;;;6.07;5.53;;;15.20;53.40;;;;;;5053552;28;20179;-61
2023/12/04 01:38:57;;;;;;;5.65;5.13;;;15.20;53.40;;;;;;5052829;28;20178;-61
2023/12/04 01:41:22;;;;;;;6.57;5.80;;;15.20;53.50;;;;;;5053488;28;20211;-61
2023/12/04 01:43:48;;;;;;;6.50;5.90;;;15.20;53.40;;;;;;5053629;28;20301;-62
2023/12/04 01:46:14;;;;;;;6.38;5.78;;;15.20;53.40;;;;;;5052750;28;20167;-62
2023/12/04 01:48:40;;;;;;;7.22;5.60;;;15.20;53.40;;;;;;5053433;28;20179;-61
2023/12/04 01:51:06;;;;;;;7.15;6.07;;;15.20;53.40;;;;;;5053772;28;20171;-62
2023/12/04 01:53:32;;;;;;;6.15;5.55;;;15.10;53.40;;;;;;5051167;28;20222;-62
2023/12/04 01:55:58;;;;;;;6.38;5.78;;;15.10;53.40;;;;;;5052174;28;20545;-62
2023/12/04 01:58:23;;;;;;;6.85;5.78;;;15.10;53.40;;;;;;5052987;28;20183;-62
2023/12/04 02:00:49;;;;;;;6.68;5.97;;;15.10;53.30;;;;;;5051508;28;20171;-61
2023/12/04 02:03:15;;;;;;;7.38;5.85;;;15.10;53.40;;;;;;5052527;28;20198;-60
2023/12/04 02:05:40;;;;;;;6.40;5.80;;;15.10;53.30;;;;;;5053104;28;20171;-61
2023/12/04 02:08:06;;;;;;;6.88;6.18;;;15.10;53.30;;;;;;5051365;28;20179;-61
2023/12/04 02:10:31;;;;;;;6.50;5.90;;;15.10;53.40;;;;;;5051717;28;20167;-62
2023/12/04 02:12:57;;;;;;;6.40;5.72;;;15.00;53.20;;;;;;5053076;28;20175;-62
2023/12/04 02:15:22;;;;;;;6.85;6.15;;;15.00;53.30;;;;;;5050862;28;20254;-61
2023/12/04 02:17:48;;;;;;;6.38;5.78;;;15.00;53.30;;;;;;5051654;28;20178;-61
2023/12/04 02:20:14;;;;;;;6.70;6.00;;;15.00;53.30;;;;;;5051717;28;20229;-61
2023/12/04 02:22:39;;;;;;;6.80;6.20;;;15.00;53.30;;;;;;5052385;28;20191;-61
2023/12/04 02:25:06;;;;;;;6.20;5.60;;;15.00;53.20;;;;;;5052970;28;20697;-61
2023/12/04 02:27:37;;;;;;;5.82;5.32;;;15.00;53.80;;;;;;5051258;28;20179;-61
2023/12/04 02:30:04;;;;;;;6.50;5.90;;;15.00;53.90;;;;;;5034834;28;20179;-61
2023/12/04 02:32:31;;;;;;;6.18;5.57;;;14.90;53.20;;;;;;5034679;28;20550;-61
2023/12/04 02:34:57;;;;;;;6.90;6.20;;;14.90;53.20;;;;;;5050960;28;20262;-61
2023/12/04 02:37:23;;;;;;;6.43;5.82;;;14.90;53.10;;;;;;5051193;28;20179;-61
2023/12/04 02:39:52;;;;;;;7.55;6.53;;;14.90;53.10;;;;;;5051327;28;20224;-62
2023/12/04 02:42:19;;;;;;;6.38;5.78;;;14.90;53.00;;;;;;5050219;28;21099;-61
2023/12/04 02:44:44;;;;;;;6.30;5.70;;;14.90;53.00;;;;;;5052582;28;20179;-61
2023/12/04 02:47:10;;;;;;;7.40;6.70;;;14.90;53.10;;;;;;5052399;28;20258;-61
2023/12/04 02:49:35;;;;;;;6.70;6.10;;;14.80;53.00;;;;;;5051286;28;20199;-62
2023/12/04 02:52:02;;;;;;;6.80;6.00;;;14.90;53.00;;;;;;5051984;28;20241;-62
2023/12/04 02:54:28;;;;;;;6.25;5.72;;;14.90;53.00;;;;;;5051990;28;20197;-62
2023/12/04 02:56:53;;;;;;;6.63;5.97;;;14.90;53.00;;;;;;5051310;28;20175;-61
2023/12/04 02:59:19;;;;;;;6.60;5.90;;;14.80;53.10;;;;;;5052027;28;20183;-61
2023/12/04 03:01:44;;;;;;;6.53;5.85;;;14.80;53.00;;;;;;5052117;28;20167;-61
2023/12/04 03:04:10;;;;;;;6.95;6.10;;;14.80;53.00;;;;;;5051706;28;20238;-61
2023/12/04 03:06:36;;;;;;;6.28;5.68;;;14.80;53.00;;;;;;5052077;28;20575;-61
2023/12/04 03:09:03;;;;;;;6.30;5.70;;;14.80;53.00;;;;;;5052307;28;20654;-62
2023/12/04 03:11:29;;;;;;;5.88;5.30;;;14.80;53.00;;;;;;5050949;28;20183;-62
2023/12/04 03:13:54;;;;;;;6.55;5.88;;;14.80;53.00;;;;;;5051335;28;20175;-62
2023/12/04 03:16:20;;;;;;;6.30;5.70;;;14.80;53.00;;;;;;5051728;28;20175;-61
2023/12/04 03:18:45;;;;;;;6.47;5.78;;;14.70;53.00;;;;;;5051485;28;20183;-61
2023/12/04 03:21:11;;;;;;;6.13;5.53;;;14.80;53.00;;;;;;5052112;28;20179;-61
2023/12/04 03:23:36;;;;;;;6.63;6.03;;;14.70;52.90;;;;;;5051527;28;20206;-61
2023/12/04 03:26:02;;;;;;;6.65;5.68;;;14.80;52.90;;;;;;5051382;28;20282;-62
2023/12/04 03:28:28;;;;;;;6.63;6.03;;;14.70;52.90;;;;;;5051631;28;20274;-60
2023/12/04 03:30:53;;;;;;;6.15;5.55;;;14.70;52.90;;;;;;5051879;28;20201;-61
2023/12/04 03:33:19;;;;;;;6.57;5.57;;;14.70;52.90;;;;;;5050989;28;20183;-61
2023/12/04 03:35:44;;;;;;;7.00;6.30;;;14.70;52.90;;;;;;5052058;28;20568;-61
2023/12/04 03:38:10;;;;;;;5.70;5.15;;;14.70;52.90;;;;;;5051131;28;20649;-61
2023/12/04 03:40:35;;;;;;;6.00;5.40;;;14.70;52.90;;;;;;5051586;28;20175;-61
2023/12/04 03:43:01;;;;;;;5.95;5.45;;;14.70;52.90;;;;;;5051836;28;20697;-61
2023/12/04 03:45:27;;;;;;;6.18;5.60;;;14.70;52.90;;;;;;5050750;28;20175;-61
2023/12/04 03:47:52;;;;;;;5.75;5.30;;;14.60;52.90;;;;;;5052055;28;20176;-61
2023/12/04 03:50:18;;;;;;;6.43;5.65;;;14.60;52.80;;;;;;5051577;28;20179;-62
2023/12/04 03:52:43;;;;;;;6.30;5.55;;;14.60;52.80;;;;;;5050940;28;20234;-61
2023/12/04 03:55:09;;;;;;;5.25;4.75;;;14.60;52.90;;;;;;5051742;28;20202;-62
2023/12/04 03:57:34;;;;;;;6.18;5.68;;;14.60;52.80;;;;;;5051379;28;20540;-61
2023/12/04 04:00:00;;;;;;;5.80;5.30;;;14.60;52.80;;;;;;5050902;28;20551;-61
2023/12/04 04:02:25;;;;;;;5.95;5.35;;;14.60;52.80;;;;;;5051383;28;20228;-61
2023/12/04 04:04:51;;;;;;;5.65;5.15;;;14.60;52.80;;;;;;5051763;28;20258;-61
2023/12/04 04:07:20;;;;;;;6.18;5.55;;;14.60;52.80;;;;;;5050628;28;20687;-61
2023/12/04 04:09:45;;;;;;;5.55;5.05;;;14.50;52.70;;;;;;5051615;28;20176;-61
2023/12/04 04:12:11;;;;;;;6.07;5.47;;;14.60;52.80;;;;;;5051569;28;20172;-63
2023/12/04 04:14:36;;;;;;;5.72;5.10;;;14.50;52.70;;;;;;5050511;28;20168;-62
2023/12/04 04:17:02;;;;;;;6.43;5.50;;;14.50;52.70;;;;;;5051770;28;20624;-62
2023/12/04 04:19:28;;;;;;;5.90;5.35;;;14.50;52.70;;;;;;5051346;28;20175;-61
2023/12/04 04:21:53;;;;;;;6.25;5.65;;;14.50;52.70;;;;;;5050778;28;20668;-61
2023/12/04 04:24:19;;;;;;;5.70;5.00;;;14.50;52.70;;;;;;5051088;28;20257;-62
2023/12/04 04:26:44;;;;;;;6.10;5.10;;;14.50;52.70;;;;;;5054632;28;20225;-61
2023/12/04 04:29:10;;;;;;;5.63;5.13;;;14.50;52.70;;;;;;5054264;28;20175;-61
2023/12/04 04:31:35;;;;;;;5.95;5.45;;;14.50;52.60;;;;;;5054590;28;20175;-61
2023/12/04 04:34:01;;;;;;;6.05;5.45;;;14.50;52.70;;;;;;5055156;28;20171;-61
2023/12/04 04:36:26;;;;;;;5.88;5.38;;;14.40;52.60;;;;;;5054111;28;20174;-61
2023/12/04 04:38:52;;;;;;;5.68;5.15;;;14.40;52.60;;;;;;5054811;28;20252;-61
2023/12/04 04:41:17;;;;;;;5.22;4.72;;;14.40;52.60;;;;;;5054640;28;20265;-61
2023/12/04 04:43:43;;;;;;;5.97;5.47;;;14.40;52.60;;;;;;5053931;28;20214;-61
2023/12/04 04:46:09;;;;;;;6.20;5.60;;;14.40;52.60;;;;;;5054625;28;20194;-61
2023/12/04 04:48:34;;;;;;;5.55;5.05;;;14.40;52.60;;;;;;5053609;28;20206;-62
2023/12/04 04:51:00;;;;;;;5.70;5.20;;;14.40;52.50;;;;;;5054396;28;20199;-62
2023/12/04 04:53:25;;;;;;;5.57;5.07;;;14.40;52.60;;;;;;5054215;28;20223;-63
2023/12/04 04:55:51;;;;;;;5.40;4.90;;;14.40;52.50;;;;;;5053856;28;20642;-62
2023/12/04 04:58:17;;;;;;;5.53;4.93;;;14.40;52.50;;;;;;5054610;28;20266;-61
2023/12/04 05:00:43;;;;;;;5.40;4.90;;;14.40;52.50;;;;;;5054654;28;20254;-61
2023/12/04 05:03:09;;;;;;;4.78;4.30;;;14.40;52.50;;;;;;5053537;28;20706;-60
2023/12/04 05:05:34;;;;;;;4.80;4.40;;;14.40;52.50;;;;;;5054009;28;20163;-61
2023/12/04 05:08:00;;;;;;;5.72;5.20;;;14.30;52.40;;;;;;5054376;28;20224;-62
2023/12/04 05:10:25;;;;;;;5.25;4.75;;;14.30;52.50;;;;;;5053286;28;20261;-62
2023/12/04 05:12:51;;;;;;;5.40;4.90;;;14.30;52.50;;;;;;5054192;28;20265;-62
2023/12/04 05:15:16;;;;;;;5.13;4.47;;;14.40;52.50;;;;;;5053919;28;20178;-61
2023/12/04 05:17:42;;;;;;;4.35;3.95;;;14.30;52.50;;;;;;5053491;28;20216;-62
2023/12/04 05:20:08;;;;;;;5.30;4.88;;;14.30;52.50;;;;;;5054024;28;20232;-61
2023/12/04 05:22:35;;;;;;;4.97;4.55;;;14.30;52.50;;;;;;5053417;28;20179;-61
2023/12/04 05:25:00;;;;;;;5.70;5.05;;;14.30;52.40;;;;;;5053417;28;20179;-61
2023/12/04 05:27:26;;;;;;;5.35;4.85;;;14.30;52.50;;;;;;5053390;28;20179;-61
2023/12/04 05:29:52;;;;;;;5.05;4.53;;;14.30;52.40;;;;;;5053925;28;20191;-60
2023/12/04 05:32:17;;;;;;;4.80;4.40;;;14.30;52.40;;;;;;5053001;28;20167;-61
2023/12/04 05:34:43;;;;;;;5.43;4.88;;;14.30;52.40;;;;;;5053817;28;20544;-61
2023/12/04 05:37:08;;;;;;;5.88;5.03;;;14.20;52.40;;;;;;5052964;28;20653;-60
2023/12/04 05:39:34;;;;;;;5.30;4.80;;;14.20;52.30;;;;;;5052682;28;20172;-61
2023/12/04 05:41:59;;;;;;;4.43;4.03;;;14.20;52.30;;;;;;5053561;28;20182;-61
2023/12/04 05:44:25;;;;;;;5.50;5.10;;;14.20;52.40;;;;;;5053237;28;20214;-60
2023/12/04 05:46:50;;;;;;;4.63;4.22;;;14.20;52.30;;;;;;5053029;28;20221;-61
2023/12/04 05:49:16;;;;;;;5.05;4.55;;;14.20;52.30;;;;;;5053401;28;20179;-61
2023/12/04 05:51:42;;;;;;;4.75;4.32;;;14.20;52.30;;;;;;5052741;28;20538;-61
2023/12/04 05:54:08;;;;;;;4.65;4.25;;;14.20;52.30;;;;;;5053555;28;20211;-62
2023/12/04 05:56:34;;;;;;;4.78;4.38;;;14.20;52.20;;;;;;5052954;28;20183;-61
2023/12/04 05:58:59;;;;;;;5.15;4.65;;;14.20;52.30;;;;;;5052772;28;20182;-61
2023/12/04 06:01:25;;;;;;;4.65;4.10;;;14.20;52.30;;;;;;5052570;28;20179;-60
2023/12/04 06:03:51;;;;;;;4.90;4.50;;;14.20;52.20;;;;;;5053297;28;20214;-61
2023/12/04 06:06:16;;;;;;;4.32;3.97;;;14.20;52.10;;;;;;5052333;28;20171;-61
2023/12/04 06:08:42;;;;;;;4.88;4.45;;;14.20;52.10;;;;;;5053095;28;20171;-61
2023/12/04 06:11:07;;;;;;;5.00;4.47;;;14.20;52.00;;;;;;5053101;28;20638;-61
2023/12/04 06:13:33;;;;;;;4.72;4.18;;;14.20;52.00;;;;;;5052206;28;20204;-61
2023/12/04 06:15:58;;;;;;;4.60;4.20;;;14.30;52.20;;;;;;5053176;28;20262;-62
2023/12/04 06:18:24;;;;;;;5.00;4.53;;;14.30;52.20;;;;;;5052770;28;20206;-61
2023/12/04 06:20:49;;;;;;;4.10;3.70;;;14.40;52.10;;;;;;5052257;28;20600;-61
2023/12/04 06:23:15;;;;;;;4.38;4.05;;;14.50;52.10;;;;;;5052533;28;20221;-61
2023/12/04 06:25:41;;;;;;;4.47;4.07;;;14.60;52.30;;;;;;5052714;28;20168;-61
2023/12/04 06:28:08;;;;;;;4.47;4.07;;;14.80;52.20;;;;;;5051928;28;20187;-61
2023/12/04 06:30:34;;;;;;;3.90;3.60;;;15.00;51.90;;;;;;5052557;28;20183;-60
2023/12/04 06:33:00;;;;;;;4.57;4.13;;;15.20;51.70;;;;;;5052799;28;20172;-60
2023/12/04 06:35:25;;;;;;;4.13;3.72;;;15.30;51.50;;;;;;5051763;28;20697;-63
2023/12/04 06:37:53;;;;;;;4.03;3.63;;;15.40;51.20;;;;;;5052616;28;20262;-61
2023/12/04 06:40:19;;;;;;;4.10;3.65;;;15.50;51.20;;;;;;5051138;28;20177;-62
2023/12/04 06:42:45;;;;;;;3.83;3.53;;;15.60;51.00;;;;;;5051561;28;20297;-60
2023/12/04 06:45:11;;;;;;;3.55;3.25;;;15.60;51.10;;;;;;5052439;28;20254;-61
2023/12/04 06:47:36;;;;;;;4.30;3.90;;;15.60;50.90;;;;;;5051776;28;20201;-60
2023/12/04 06:50:02;;;;;;;3.85;3.55;;;15.70;51.00;;;;;;5049659;28;20167;-62
2023/12/04 06:52:27;;;;;;;3.53;3.22;;;15.70;51.00;;;;;;5051807;28;20223;-61
2023/12/04 06:54:53;;;;;;;3.65;3.35;;;15.70;50.80;;;;;;5052127;28;20172;-62
2023/12/04 06:57:18;;;;;;;4.13;3.47;;;15.80;51.00;;;;;;5051437;28;20183;-61
2023/12/04 06:59:44;;;;;;;3.10;2.80;;;15.80;51.00;;;;;;5052438;28;20167;-61
2023/12/04 07:02:09;;;;;;;3.10;2.90;;;15.80;51.00;;;;;;5051466;28;20171;-61
2023/12/04 07:04:35;;;;;;;3.60;3.30;;;15.80;50.90;;;;;;5051920;28;20673;-60
2023/12/04 07:07:04;;;;;;;3.40;3.10;;;15.80;50.90;;;;;;5052252;28;20244;-61
2023/12/04 07:09:34;;;;;;;3.42;3.13;;;15.90;50.80;;;;;;5050886;28;20181;-61
2023/12/04 07:12:00;;;;;;;3.40;3.10;;;16.00;50.70;;;;;;5052124;28;20168;-62
2023/12/04 07:14:26;;;;;;;3.42;3.00;;;16.20;50.60;;;;;;5052007;28;20590;-62
2023/12/04 07:16:51;;;;;;;3.10;2.90;;;16.30;50.30;;;;;;5051595;28;20633;-61
2023/12/04 07:19:17;;;;;;;3.53;3.22;;;16.50;50.10;;;;;;5051796;28;20630;-61
2023/12/04 07:21:42;;;;;;;3.10;2.80;;;16.70;49.80;;;;;;5051895;28;20274;-61
2023/12/04 07:24:08;;;;;;;3.22;2.92;;;16.90;49.50;;;;;;5050997;28;20233;-62
2023/12/04 07:26:38;;;;;;;3.20;2.83;;;17.00;49.30;;;;;;5051636;28;20648;-61
2023/12/04 07:29:03;;;;;;;3.50;3.20;;;17.20;49.10;;;;;;5052056;28;20183;-61
2023/12/04 07:31:29;;;;;;;3.55;3.25;;;17.20;49.00;;;;;;5050839;28;20175;-61
2023/12/04 07:33:54;;;;;;;2.90;2.70;;;17.30;49.00;;;;;;5052007;28;20209;-61
2023/12/04 07:36:20;;;;;;;3.00;2.80;;;17.30;48.90;;;;;;5051634;28;20637;-61
2023/12/04 07:38:46;;;;;;;3.53;3.00;;;17.30;48.90;;;;;;5050985;28;20540;-61
2023/12/04 07:41:11;;;;;;;2.90;2.70;;;17.20;49.00;;;;;;5051975;28;20532;-61
2023/12/04 07:43:37;;;;;;;3.20;2.90;;;17.20;49.00;;;;;;5051489;28;20692;-61
2023/12/04 07:46:03;;;;;;;2.85;2.65;;;17.20;49.20;;;;;;5051103;28;20171;-61
2023/12/04 07:48:29;;;;;;;2.88;2.58;;;17.10;49.20;;;;;;5051549;28;20175;-62
2023/12/04 07:50:55;;;;;;;2.65;2.45;;;17.10;49.20;;;;;;5051346;28;20510;-61
2023/12/04 07:53:20;;;;;;;2.88;2.67;;;17.10;49.30;;;;;;5050584;28;20250;-62
2023/12/04 07:55:48;;;;;;;2.85;2.65;;;17.00;49.40;;;;;;5051923;28;20578;-61
2023/12/04 07:58:13;;;;;;;3.15;2.90;;;17.00;49.50;;;;;;5051402;28;20190;-61
2023/12/04 08:00:39;;;;;;;2.65;2.45;;;16.90;49.50;;;;;;5053015;28;20175;-61
2023/12/04 08:03:05;;;;;;;3.63;2.97;;;17.30;49.70;;;;;;5055472;28;20211;-61
2023/12/04 08:05:31;;;;;;;2.80;2.60;;;17.00;49.60;;;;;;5054354;28;20171;-61
2023/12/04 08:07:57;;;;;;;2.42;2.22;;;17.00;49.30;;;;;;5055264;28;20262;-62
2023/12/04 08:10:23;;;;;;;2.95;2.67;;;17.00;49.50;;;;;;5055313;28;20313;-61
2023/12/04 08:12:48;;;;;;;2.63;2.40;;;17.00;49.50;;;;;;5054614;28;20183;-62
2023/12/04 08:15:14;;;;;;;2.90;2.70;;;17.10;49.60;;;;;;5055135;28;20202;-61
2023/12/04 08:17:40;;;;;;;3.00;2.70;;;17.10;49.60;;;;;;5055366;28;20175;-62
2023/12/04 08:20:06;;;;;;;3.38;2.90;;;17.10;49.50;;;;;;5054604;28;20650;-62
2023/12/04 08:22:32;;;;;;;2.92;2.72;;;17.10;49.60;;;;;;5054603;28;20197;-61
2023/12/04 08:24:58;;;;;;;2.97;2.72;;;17.10;49.50;;;;;;5055071;28;20187;-62
2023/12/04 08:27:24;;;;;;;2.80;2.60;;;17.10;49.50;;;;;;5054217;28;20258;-61
2023/12/04 08:29:49;;;;;;;2.67;2.47;;;17.00;49.30;;;;;;5055169;28;20685;-61
2023/12/04 08:32:15;;;;;;;2.72;2.47;;;17.10;49.60;;;;;;5054794;28;20175;-61
2023/12/04 08:34:41;;;;;;;3.17;2.70;;;17.00;49.60;;;;;;5054367;28;20167;-61
2023/12/04 08:37:06;;;;;;;2.47;2.28;;;17.00;49.60;;;;;;5054924;28;20179;-61
2023/12/04 08:39:32;;;;;;;2.55;2.35;;;17.00;49.60;;;;;;5054758;28;20634;-61
2023/12/04 08:41:57;;;;;;;2.80;2.60;;;17.10;49.60;;;;;;5054233;28;20179;-62
2023/12/04 08:44:23;;;;;;;3.63;2.60;;;17.00;49.50;;;;;;5054374;28;20207;-62
2023/12/04 08:46:49;;;;;;;3.00;2.70;;;17.00;49.60;;;;;;5054756;28;20258;-61
2023/12/04 08:49:14;;;;;;;2.45;2.25;;;17.00;49.70;;;;;;5053717;28;20278;-62
2023/12/04 08:51:40;;;;;;;2.67;2.47;;;16.90;49.80;;;;;;5054333;28;20171;-62
2023/12/04 08:54:07;;;;;;;4.63;3.17;;;16.80;49.90;;;;;;5054556;28;20186;-62
2023/12/04 08:56:32;;;;;;;2.70;2.50;;;16.80;50.00;;;;;;5053807;28;20171;-61
2023/12/04 08:58:58;;;;;;;3.47;2.95;;;16.70;49.80;;;;;;5054616;28;20198;-61
2023/12/04 09:01:23;;;;;;;3.05;2.50;;;16.70;50.00;;;;;;5054254;28;20175;-61
2023/12/04 09:03:49;;;;;;;2.95;2.67;;;16.70;50.10;;;;;;5053262;28;20231;-61
2023/12/04 09:06:15;;;;;;;3.15;2.95;;;16.70;50.00;;;;;;5054033;28;20649;-61
2023/12/04 09:08:41;;;;;;;3.13;2.90;;;16.70;49.80;;;;;;5053857;28;20182;-61
2023/12/04 09:11:06;;;;;;;2.97;2.78;;;16.70;50.10;;;;;;5053675;28;20171;-62
2023/12/04 09:13:33;;;;;;;3.10;2.90;;;16.70;50.10;;;;;;5053478;28;20258;-62
2023/12/04 09:15:59;;;;;;;2.58;2.38;;;16.70;50.10;;;;;;5053409;28;20183;-66
2023/12/04 09:18:25;;;;;;;3.63;2.55;;;16.70;50.10;;;;;;5053687;28;20544;-67
2023/12/04 09:20:50;;;;;;;4.85;2.83;;;16.70;50.30;;;;;;5053671;28;20179;-66
2023/12/04 09:23:16;;;;;;;3.72;2.88;;;16.70;50.70;;;;;;5053072;28;20218;-66
2023/12/04 09:25:41;;;;;;;5.28;3.53;;;16.70;50.50;;;;;;5054175;28;20175;-67
2023/12/04 09:28:07;;;;;;;2.67;2.47;;;16.60;51.00;;;;;;5054105;28;20171;-67
2023/12/04 09:30:34;;;;;;;3.03;2.60;;;16.60;51.00;;;;;;5052981;28;20181;-66
2023/12/04 09:32:59;;;;;;;5.65;3.00;;;16.60;51.00;;;;;;5053819;28;20183;-64
2023/12/04 09:35:25;;;;;;;3.08;2.80;;;16.60;51.10;;;;;;5053241;28;20200;-64
2023/12/04 09:37:50;;;;;;;3.08;2.78;;;16.70;51.10;;;;;;5052816;28;20254;-67
2023/12/04 09:40:16;;;;;;;5.15;2.92;;;16.80;50.60;;;;;;5053337;28;20262;-68
2023/12/04 09:42:41;;;;;;;4.93;2.58;;;16.90;50.60;;;;;;5053513;28;20266;-69
2023/12/04 09:45:08;;;;;;;3.53;2.70;;;17.10;50.40;;;;;;5051684;28;20262;-69
2023/12/04 09:47:34;;;;;;;2.88;2.67;;;17.40;50.20;;;;;;5035458;28;20254;-68
2023/12/04 09:50:00;;;;;;;3.30;2.97;;;17.50;49.90;;;;;;5052419;28;20672;-68
2023/12/04 09:52:27;;;;;;;3.63;2.67;;;17.60;49.50;;;;;;5052632;28;20276;-65
2023/12/04 09:54:52;;;;;;;5.25;3.17;;;17.70;49.60;;;;;;5052093;28;20182;-66
2023/12/04 09:57:18;;;;;;;2.88;2.42;;;17.80;49.70;;;;;;5052925;28;20183;-66
2023/12/04 09:59:44;;;;;;;4.68;2.90;;;17.80;49.70;;;;;;5050818;28;20168;-66
2023/12/04 10:02:10;;;;;;;3.28;3.00;;;17.80;49.70;;;;;;5053177;28;20325;-66
2023/12/04 10:04:36;;;;;;;3.65;2.90;;;17.80;49.60;;;;;;5051442;28;20665;-67
2023/12/04 10:07:02;;;;;;;3.50;2.63;;;17.90;49.80;;;;;;5034846;28;20182;-69
2023/12/04 10:09:27;;;;;;;3.78;2.67;;;17.90;49.80;;;;;;5052864;28;20179;-68
2023/12/04 10:11:54;;;;;;;4.05;2.70;;;17.90;49.70;;;;;;5052903;28;20171;-69
2023/12/04 10:14:19;;;;;;;3.92;2.58;;;18.00;49.60;;;;;;5051080;28;20183;-68
2023/12/04 10:16:45;;;;;;;3.47;2.33;;;17.90;49.70;;;;;;5052693;28;20201;-68
2023/12/04 10:19:27;;;;;;;3.78;2.90;;;17.90;49.70;;;;;;5051974;28;20179;-69
2023/12/04 10:21:54;;;;;;;4.68;2.80;;;17.90;49.70;;;;;;5052895;28;20250;-68
2023/12/04 10:24:46;;;;;;;2.92;2.67;;;17.90;49.80;;;;;;5052143;28;20215;-69
2023/12/04 10:27:32;;;;;;;3.60;2.78;;;17.90;49.90;;;;;;5050711;28;20195;-67
2023/12/04 10:29:58;;;;;;;3.20;2.85;;;17.90;50.00;;;;;;5052200;28;20193;-67
2023/12/04 10:32:23;;;;;;;3.25;2.78;;;17.90;49.50;;;;;;5050924;28;20175;-67
2023/12/04 10:34:49;;;;;;;2.63;2.42;;;17.90;49.50;;;;;;5051785;28;20561;-68
2023/12/04 10:37:14;;;;;;;2.63;2.42;;;17.80;49.40;;;;;;5052203;28;20557;-68
2023/12/04 10:39:47;;;;;;;2.97;2.42;;;17.90;49.60;;;;;;5052412;28;20179;-68
2023/12/04 10:42:25;;;;;;;4.43;2.40;;;17.90;49.60;;;;;;5051657;28;20215;-68
2023/12/04 10:44:52;;;;;;;3.38;2.72;;;17.90;49.80;;;;;;5051167;28;20221;-68
2023/12/04 10:47:19;;;;;;;3.38;2.60;;;17.90;50.00;;;;;;5051267;28;20634;-67
2023/12/04 10:49:45;;;;;;;3.00;2.65;;;17.90;50.10;;;;;;5051114;28;20217;-67
2023/12/04 10:52:10;;;;;;;2.65;2.45;;;17.90;50.10;;;;;;5050951;28;20227;-67
2023/12/04 10:54:36;;;;;;;4.15;2.65;;;17.80;50.20;;;;;;5051222;28;20197;-67
2023/12/04 10:57:03;;;;;;;2.50;2.30;;;17.90;50.40;;;;;;5052377;28;20183;-66
2023/12/04 10:59:31;;;;;;;2.22;2.03;;;17.80;50.50;;;;;;5034317;28;20231;-69
2023/12/04 11:01:57;;;;;;;3.65;2.15;;;17.80;50.60;;;;;;5034117;28;20252;-68
2023/12/04 11:04:23;;;;;;;2.95;2.65;;;17.80;50.80;;;;;;5033964;28;20670;-69
2023/12/04 11:06:51;;;;;;;3.08;2.13;;;17.70;50.70;;;;;;5034342;28;20179;-69
2023/12/04 11:09:18;;;;;;;3.08;2.65;;;17.70;51.00;;;;;;5050982;28;20616;-69
2023/12/04 11:11:44;;;;;;;3.95;2.30;;;17.60;51.20;;;;;;5054898;28;20529;-69
2023/12/04 11:14:10;;;;;;;2.15;2.05;;;17.60;51.30;;;;;;5041235;28;20171;-69
2023/12/04 11:16:43;;;;;;;3.47;2.08;;;17.50;51.20;;;;;;5065251;28;20178;-68
2023/12/04 11:19:16;;;;;;;2.83;2.60;;;17.40;51.40;;;;;;5069540;28;20178;-69
2023/12/04 11:21:42;;;;;;;2.78;2.55;;;17.40;51.50;;;;;;5051866;28;20172;-69
2023/12/04 11:24:07;;;;;;;2.60;2.40;;;17.30;51.60;;;;;;5032915;28;20257;-69
2023/12/04 11:26:33;;;;;;;2.80;2.55;;;17.30;51.60;;;;;;5050043;28;20171;-69
2023/12/04 11:28:59;;;;;;;2.83;2.30;;;17.30;52.00;;;;;;5033745;28;20183;-68
2023/12/04 11:31:24;;;;;;;2.83;2.40;;;17.30;52.00;;;;;;5049315;28;20167;-68
2023/12/04 11:33:50;;;;;;;2.38;2.17;;;17.40;51.70;;;;;;5034030;28;20179;-68
2023/12/04 11:36:15;;;;;;;2.45;2.25;;;17.40;51.70;;;;;;5053847;28;20254;-67
2023/12/04 11:38:48;;;;;;;2.20;2.00;;;17.40;52.00;;;;;;5054244;28;20200;-68
2023/12/04 11:41:20;;;;;;;2.63;2.38;;;17.40;52.00;;;;;;5055698;28;20703;-68
2023/12/04 11:43:47;;;;;;;3.17;2.78;;;17.30;52.10;;;;;;5055242;28;20240;-70
2023/12/04 11:46:13;;;;;;;2.40;2.20;;;17.30;52.50;;;;;;5068936;28;20590;-69
2023/12/04 11:48:38;;;;;;;3.15;2.30;;;17.40;52.40;;;;;;5074372;28;20325;-68
2023/12/04 11:51:07;;;;;;;2.63;2.42;;;17.30;52.60;;;;;;5075084;28;20178;-68
2023/12/04 11:53:37;;;;;;;2.72;2.28;;;17.30;52.40;;;;;;5075289;28;20230;-68
2023/12/04 11:56:12;;;;;;;2.20;2.00;;;17.30;52.30;;;;;;5075789;28;20221;-69
2023/12/04 11:58:44;;;;;;;2.45;2.25;;;17.30;52.30;;;;;;5073904;28;20264;-67
2023/12/04 12:01:10;;;;;;;2.72;2.38;;;17.30;52.50;;;;;;5061210;28;20203;-68
2023/12/04 12:03:36;;;;;;;2.03;1.92;;;17.30;52.50;;;;;;5055071;28;20670;-68
2023/12/04 12:06:01;;;;;;;2.65;2.40;;;17.30;52.50;;;;;;5053856;28;20175;-68
2023/12/04 12:08:28;;;;;;;2.85;2.38;;;17.30;52.50;;;;;;5054135;28;20209;-70
2023/12/04 12:10:54;;;;;;;2.40;1.92;;;17.30;52.40;;;;;;5054316;28;20175;-68
2023/12/04 12:13:20;;;;;;;1.95;1.85;;;17.30;52.90;;;;;;5053165;28;20175;-68
2023/12/04 12:15:51;;;;;;;2.42;1.98;;;17.30;52.50;;;;;;5055261;28;20187;-68
2023/12/04 12:18:17;;;;;;;3.08;2.25;;;17.30;52.60;;;;;;5055246;28;20258;-70
2023/12/04 12:20:42;;;;;;;3.08;2.05;;;17.30;52.50;;;;;;5054714;28;20305;-66
2023/12/04 12:23:08;;;;;;;5.03;2.08;;;17.30;52.80;;;;;;5055161;28;20207;-69
2023/12/04 12:25:35;;;;;;;3.17;2.47;;;17.30;52.50;;;;;;5052854;28;20175;-68
2023/12/04 12:28:04;;;;;;;2.13;1.92;;;17.30;52.70;;;;;;5053672;28;20182;-69
2023/12/04 12:30:29;;;;;;;2.05;1.90;;;17.30;52.70;;;;;;5054768;28;20190;-69
2023/12/04 12:32:55;;;;;;;3.17;1.90;;;17.30;52.90;;;;;;5054347;28;20963;-70
2023/12/04 12:35:21;;;;;;;2.67;2.47;;;17.30;52.70;;;;;;5054594;28;20179;-72
2023/12/04 12:37:46;;;;;;;3.10;2.20;;;17.30;52.70;;;;;;5055046;28;20175;-69
2023/12/04 12:40:12;;;;;;;2.30;2.10;;;17.30;52.90;;;;;;5054118;28;20250;-70
2023/12/04 12:42:41;;;;;;;3.08;2.40;;;17.30;52.90;;;;;;5054530;28;20596;-69